Manila, Arkansas
Current Conditions -  °F | °C
As of 8:54 AM on Monday 24 Nov 2014 (Local Time) from KHKA Reporting Station
NA  
Wind Chill: 56°   Ceiling: NA
Heat Index: 56°   Visibility: 10mi
Dew Point: 37°   Wind: 17mph
Humidity: 49%   Direction: 270°W
Pressure: 29.8"   Gusts: 26mph
Location:  35.88°N, 90.17°W
Report Text: KHKA 241454Z AUTO 27015G23KT 10SM 13/03 A2980 RMK AO2 SLP089 T01330028 $
Loading
Personal Weather Stations






























Interactive Weather Map New forecast layout! Learn more

10-Day Weather Forecast

Advertisements
Track Severe Weather on mobile